Time;durP1;ratioP1;P1;durP2;ratioP2;P2;SDS_P1;SDS_P2;PMS_P1;PMS_P2;Temp;Humidity;BMP_temperature;BMP_pressure;BME280_temperature;BME280_humidity;BME280_pressure;Samples;Min_cycle;Max_cycle;Signal;HPM_P1;HPM_P2
2022/06/06 00:00:44;;;;;;;0.80;0.80;;;18.60;99.90;;;;;;5099967;28;20261;-63
2022/06/06 00:03:11;;;;;;;0.80;0.80;;;18.60;99.90;;;;;;5099418;28;20213;-61
2022/06/06 00:05:41;;;;;;;0.80;0.80;;;18.60;99.90;;;;;;5104534;28;20202;-61
2022/06/06 00:08:08;;;;;;;0.70;0.70;;;18.60;99.90;;;;;;5100973;28;20215;-61
2022/06/06 00:10:35;;;;;;;0.90;0.90;;;18.60;99.90;;;;;;5107518;28;20802;-61
2022/06/06 00:13:02;;;;;;;0.90;0.90;;;18.60;99.90;;;;;;5103501;28;20234;-62
2022/06/06 00:15:30;;;;;;;0.80;0.80;;;18.70;99.90;;;;;;5108937;28;20229;-62
2022/06/06 00:17:57;;;;;;;0.83;0.83;;;18.70;99.90;;;;;;5100070;28;20195;-62
2022/06/06 00:20:24;;;;;;;0.93;0.93;;;18.70;99.90;;;;;;5107462;28;20202;-63
2022/06/06 00:22:51;;;;;;;0.60;0.60;;;18.50;99.90;;;;;;5099036;28;20210;-62
2022/06/06 00:25:18;;;;;;;0.90;0.90;;;18.60;99.90;;;;;;5099319;28;20199;-62
2022/06/06 00:27:45;;;;;;;0.80;0.80;;;18.50;99.90;;;;;;5109265;28;20226;-61
2022/06/06 00:30:12;;;;;;;0.93;0.80;;;18.50;99.90;;;;;;5102778;28;20195;-62
2022/06/06 00:35:24;;;;;;;1.20;1.10;;;18.50;99.90;;;;;;5099956;28;20209;-61
2022/06/06 00:37:51;;;;;;;1.37;0.90;;;18.60;99.90;;;;;;5110915;28;20218;-61
2022/06/06 00:40:22;;;;;;;0.80;0.80;;;18.50;99.90;;;;;;5103011;28;20571;-62
2022/06/06 00:42:49;;;;;;;0.90;0.90;;;18.40;99.90;;;;;;5091131;28;20828;-62
2022/06/06 00:45:26;;;;;;;0.80;0.80;;;18.50;99.90;;;;;;5106959;28;20203;-63
2022/06/06 00:48:00;;;;;;;1.17;0.90;;;18.50;99.90;;;;;;5093861;28;20687;-63
2022/06/06 00:50:33;;;;;;;0.80;0.80;;;18.50;99.90;;;;;;5103525;28;20202;-61
2022/06/06 00:53:01;;;;;;;0.88;0.88;;;18.50;99.90;;;;;;5102346;28;20221;-61
2022/06/06 00:55:31;;;;;;;0.93;0.90;;;18.50;99.90;;;;;;5098188;28;20213;-62
2022/06/06 00:58:01;;;;;;;0.50;0.50;;;18.50;99.90;;;;;;5100478;28;20287;-62
2022/06/06 01:00:28;;;;;;;0.90;0.90;;;18.60;99.90;;;;;;5105351;28;20289;-62
2022/06/06 01:02:58;;;;;;;0.70;0.70;;;18.70;99.90;;;;;;5099655;28;20292;-61
2022/06/06 01:05:27;;;;;;;0.80;0.80;;;18.80;99.90;;;;;;5105473;28;20293;-62
2022/06/06 01:07:54;;;;;;;0.93;0.93;;;18.80;99.90;;;;;;5103730;28;20264;-62
2022/06/06 01:10:22;;;;;;;0.80;0.80;;;18.70;99.90;;;;;;5103019;28;20739;-62
2022/06/06 01:12:52;;;;;;;0.60;0.60;;;18.70;99.90;;;;;;5099775;28;20638;-61
2022/06/06 01:15:23;;;;;;;1.07;0.97;;;18.70;99.90;;;;;;5108786;28;20292;-62
2022/06/06 01:17:59;;;;;;;0.80;0.80;;;18.70;99.90;;;;;;5099122;28;20631;-62
2022/06/06 01:20:48;;;;;;;0.70;0.70;;;18.70;99.90;;;;;;5109921;28;20281;-62
2022/06/06 01:23:51;;;;;;;0.77;0.77;;;18.70;99.90;;;;;;5104704;28;20209;-61
2022/06/06 01:26:44;;;;;;;0.80;0.80;;;18.60;99.90;;;;;;5097366;28;20289;-63
2022/06/06 01:29:15;;;;;;;0.77;0.77;;;18.60;99.90;;;;;;5099102;28;20304;-60
2022/06/06 01:31:48;;;;;;;1.53;0.90;;;18.50;99.90;;;;;;5104277;28;20313;-61
2022/06/06 01:34:23;;;;;;;0.80;0.80;;;18.50;99.90;;;;;;5105317;28;20706;-62
2022/06/06 01:36:50;;;;;;;0.70;0.70;;;18.60;99.90;;;;;;5104220;28;20201;-61
2022/06/06 01:39:18;;;;;;;0.80;0.80;;;18.60;99.90;;;;;;5105412;28;20202;-61
2022/06/06 01:41:53;;;;;;;0.60;0.60;;;18.60;99.90;;;;;;5101930;28;20757;-61
2022/06/06 01:44:30;;;;;;;0.70;0.70;;;18.60;99.90;;;;;;5107295;28;20198;-61
2022/06/06 01:47:00;;;;;;;0.80;0.80;;;18.70;99.90;;;;;;5099578;28;20656;-62
2022/06/06 01:49:28;;;;;;;0.93;0.93;;;18.70;99.90;;;;;;5108663;28;20289;-62
2022/06/06 01:52:01;;;;;;;0.83;0.83;;;18.70;99.90;;;;;;5101517;28;20313;-61
2022/06/06 01:54:28;;;;;;;0.97;0.97;;;18.80;99.90;;;;;;5104691;28;20199;-62
2022/06/06 01:56:56;;;;;;;0.57;0.57;;;18.80;99.90;;;;;;5104745;28;20225;-62
2022/06/06 01:59:23;;;;;;;0.80;0.80;;;18.80;99.90;;;;;;5103698;28;20227;-62
2022/06/06 02:01:52;;;;;;;0.80;0.80;;;18.80;99.90;;;;;;5087361;28;20226;-63
2022/06/06 02:04:19;;;;;;;0.70;0.70;;;18.80;99.90;;;;;;5104081;28;20198;-61
2022/06/06 02:06:46;;;;;;;0.90;0.90;;;18.80;99.90;;;;;;5104632;28;20272;-62
2022/06/06 02:09:13;;;;;;;0.80;0.80;;;18.80;99.90;;;;;;5098245;28;20222;-62
2022/06/06 02:11:41;;;;;;;0.90;0.90;;;18.80;99.90;;;;;;5099485;28;20301;-62
2022/06/06 02:14:09;;;;;;;0.63;0.63;;;18.80;99.90;;;;;;5098673;28;20206;-62
2022/06/06 02:16:36;;;;;;;1.17;0.80;;;18.80;99.90;;;;;;5098372;28;20607;-61
2022/06/06 02:19:05;;;;;;;0.70;0.70;;;18.80;99.90;;;;;;5106834;28;20198;-62
2022/06/06 02:21:32;;;;;;;0.70;0.70;;;18.90;99.90;;;;;;5105608;28;20218;-62
2022/06/06 02:23:59;;;;;;;0.77;0.77;;;18.90;99.90;;;;;;5104860;28;20574;-61
2022/06/06 02:26:26;;;;;;;0.70;0.70;;;18.90;99.90;;;;;;5103859;28;20288;-62
2022/06/06 02:28:53;;;;;;;0.60;0.60;;;18.90;99.90;;;;;;5100726;28;20223;-61
2022/06/06 02:31:20;;;;;;;1.20;0.70;;;18.80;99.90;;;;;;5106601;28;20230;-61
2022/06/06 02:33:47;;;;;;;0.80;0.80;;;18.80;99.90;;;;;;5099914;28;20245;-62
2022/06/06 02:36:15;;;;;;;0.70;0.70;;;18.80;99.90;;;;;;5099515;28;20230;-62
2022/06/06 02:38:42;;;;;;;0.80;0.80;;;18.80;99.90;;;;;;5101708;28;20233;-62
2022/06/06 02:41:09;;;;;;;0.80;0.80;;;18.80;99.90;;;;;;5107567;28;20253;-63
2022/06/06 02:43:39;;;;;;;0.70;0.70;;;18.70;99.90;;;;;;5102176;28;20566;-62
2022/06/06 02:46:06;;;;;;;0.70;0.70;;;18.80;99.90;;;;;;5100860;28;20205;-61
2022/06/06 02:48:33;;;;;;;0.80;0.80;;;18.80;99.90;;;;;;5107686;28;20825;-61
2022/06/06 02:51:00;;;;;;;0.70;0.70;;;18.80;99.90;;;;;;5101106;28;20297;-61
2022/06/06 02:53:28;;;;;;;0.70;0.70;;;18.80;99.90;;;;;;5107840;28;20226;-61
2022/06/06 02:55:57;;;;;;;0.83;0.83;;;18.80;99.90;;;;;;5100690;28;20208;-61
2022/06/06 02:58:25;;;;;;;0.80;0.80;;;18.80;99.90;;;;;;5100954;28;20286;-61
2022/06/06 03:00:59;;;;;;;0.73;0.73;;;18.80;99.90;;;;;;5101393;28;20300;-62
2022/06/06 03:03:25;;;;;;;0.90;0.90;;;18.80;99.90;;;;;;5101754;28;20262;-62
2022/06/06 03:06:02;;;;;;;0.80;0.80;;;18.80;99.90;;;;;;5104449;28;20274;-63
2022/06/06 03:08:48;;;;;;;0.80;0.80;;;18.80;99.90;;;;;;5098679;28;20598;-62
2022/06/06 03:11:35;;;;;;;0.70;0.70;;;18.80;99.90;;;;;;5105275;28;20838;-61
2022/06/06 03:14:27;;;;;;;0.80;0.80;;;18.80;99.90;;;;;;5093595;28;20201;-61
2022/06/06 03:23:17;;;;;;;0.80;0.80;;;18.90;99.90;;;;;;5093196;28;20224;-62
2022/06/06 03:25:53;;;;;;;0.80;0.80;;;18.80;99.90;;;;;;5101707;28;20201;-61
2022/06/06 03:28:28;;;;;;;1.02;0.93;;;18.80;99.90;;;;;;5101826;28;20683;-63
2022/06/06 03:33:34;;;;;;;0.75;0.75;;;18.80;99.90;;;;;;5042975;28;20326;-64
2022/06/06 03:36:07;;;;;;;0.67;0.67;;;18.80;99.90;;;;;;5041113;28;20482;-62
2022/06/06 03:38:39;;;;;;;0.80;0.80;;;18.80;99.90;;;;;;5038653;28;20303;-62
2022/06/06 03:41:14;;;;;;;0.70;0.70;;;18.80;99.90;;;;;;5049529;28;20207;-63
2022/06/06 03:43:50;;;;;;;0.90;0.90;;;18.80;99.90;;;;;;5048558;28;20291;-63
2022/06/06 03:46:27;;;;;;;0.70;0.70;;;18.80;99.90;;;;;;5042509;28;20227;-64
2022/06/06 03:49:08;;;;;;;0.80;0.80;;;18.80;99.90;;;;;;5041755;28;20220;-64
2022/06/06 03:51:42;;;;;;;0.70;0.70;;;18.70;99.90;;;;;;5049073;28;20225;-63
2022/06/06 03:54:23;;;;;;;0.73;0.73;;;18.80;99.90;;;;;;5037294;28;20287;-63
2022/06/06 03:57:05;;;;;;;0.97;0.97;;;18.80;99.90;;;;;;5039532;28;20235;-63
2022/06/06 03:59:33;;;;;;;0.90;0.90;;;18.90;99.90;;;;;;5044953;28;20279;-63
2022/06/06 04:02:04;;;;;;;0.87;0.87;;;18.80;99.90;;;;;;5045010;28;20282;-64
2022/06/06 04:04:32;;;;;;;0.70;0.70;;;18.80;99.90;;;;;;5045053;28;20310;-63
2022/06/06 04:07:01;;;;;;;0.70;0.70;;;18.90;99.90;;;;;;5029318;28;20287;-64
2022/06/06 04:09:32;;;;;;;1.10;0.90;;;18.90;99.90;;;;;;5040654;28;20730;-64
2022/06/06 04:12:10;;;;;;;1.00;1.00;;;18.90;99.90;;;;;;5042868;28;20220;-62
2022/06/06 04:14:45;;;;;;;0.80;0.80;;;18.90;99.90;;;;;;5050039;28;20250;-64
2022/06/06 04:17:24;;;;;;;1.30;1.20;;;19.00;99.90;;;;;;5041617;28;20295;-63
2022/06/06 04:20:00;;;;;;;0.90;0.90;;;19.00;99.90;;;;;;5042498;28;20208;-63
2022/06/06 04:22:36;;;;;;;0.77;0.77;;;19.00;99.90;;;;;;5044453;28;20220;-62
2022/06/06 04:25:10;;;;;;;0.70;0.70;;;19.00;99.90;;;;;;5035551;28;20216;-63
2022/06/06 04:27:43;;;;;;;0.90;0.90;;;19.00;99.90;;;;;;5026310;28;20216;-63
2022/06/06 04:30:15;;;;;;;0.80;0.80;;;19.00;99.90;;;;;;5040841;28;20222;-63
2022/06/06 04:32:51;;;;;;;0.87;0.87;;;19.00;99.90;;;;;;5035310;28;20315;-63
2022/06/06 04:35:24;;;;;;;0.80;0.80;;;19.10;99.90;;;;;;5039944;28;20238;-63
2022/06/06 04:38:02;;;;;;;0.90;0.90;;;19.20;99.90;;;;;;5038794;28;20626;-63
2022/06/06 04:40:39;;;;;;;0.80;0.80;;;19.20;99.90;;;;;;5046317;28;20262;-62
2022/06/06 04:43:15;;;;;;;1.07;0.80;;;19.10;99.90;;;;;;5048906;28;20319;-65
2022/06/06 04:45:50;;;;;;;0.87;0.87;;;19.10;99.90;;;;;;5049475;28;20483;-64
2022/06/06 04:48:18;;;;;;;0.73;0.73;;;19.10;99.90;;;;;;5046635;28;20211;-64
2022/06/06 04:50:46;;;;;;;0.90;0.90;;;19.10;99.90;;;;;;5046491;28;20204;-64
2022/06/06 04:53:17;;;;;;;0.70;0.70;;;19.10;99.90;;;;;;5049571;28;20252;-63
2022/06/06 04:55:47;;;;;;;0.60;0.60;;;19.20;99.90;;;;;;5046130;28;20296;-62
2022/06/06 04:58:18;;;;;;;0.80;0.80;;;19.20;99.90;;;;;;5054597;28;20283;-63
2022/06/06 05:00:46;;;;;;;0.90;0.90;;;19.20;99.90;;;;;;5043509;28;20228;-64
2022/06/06 05:03:14;;;;;;;0.80;0.80;;;19.20;99.90;;;;;;5034217;28;20374;-64
2022/06/06 05:05:52;;;;;;;0.77;0.77;;;19.20;99.90;;;;;;5047963;28;20212;-64
2022/06/06 05:08:35;;;;;;;0.80;0.80;;;19.10;99.90;;;;;;5038659;28;20300;-63
2022/06/06 05:11:21;;;;;;;0.83;0.83;;;19.10;99.90;;;;;;5050666;28;20267;-64
2022/06/06 05:14:05;;;;;;;0.80;0.80;;;19.20;99.90;;;;;;5039240;28;20208;-66
2022/06/06 05:17:05;;;;;;;0.80;0.80;;;19.20;99.90;;;;;;5042775;28;20212;-64
2022/06/06 05:19:53;;;;;;;0.83;0.83;;;19.20;99.90;;;;;;5031406;28;20244;-64
2022/06/06 05:22:44;;;;;;;0.80;0.80;;;19.30;99.90;;;;;;5047564;28;20255;-63
2022/06/06 05:25:23;;;;;;;0.80;0.80;;;19.50;99.90;;;;;;5029689;28;20608;-63
2022/06/06 05:28:10;;;;;;;1.00;1.00;;;19.60;99.90;;;;;;5032036;28;20753;-64
2022/06/06 05:30:49;;;;;;;0.80;0.80;;;19.70;99.90;;;;;;5025794;28;20210;-63
2022/06/06 05:33:20;;;;;;;0.98;0.98;;;19.70;99.90;;;;;;5039077;28;20604;-63
2022/06/06 05:36:08;;;;;;;0.80;0.80;;;19.80;99.90;;;;;;5039082;28;20291;-64
2022/06/06 05:38:57;;;;;;;0.87;0.87;;;19.90;99.90;;;;;;5051622;28;20197;-65
2022/06/06 05:41:33;;;;;;;0.90;0.90;;;20.10;99.90;;;;;;5039303;28;20220;-64
2022/06/06 05:44:07;;;;;;;0.80;0.80;;;20.20;99.90;;;;;;5037653;28;20291;-66
2022/06/06 05:46:44;;;;;;;1.10;1.10;;;20.50;99.90;;;;;;5031023;28;20226;-64
2022/06/06 05:49:24;;;;;;;0.83;0.83;;;20.60;99.90;;;;;;5034540;28;20209;-65
2022/06/06 05:52:03;;;;;;;1.00;1.00;;;20.70;99.90;;;;;;5035973;28;20310;-63
2022/06/06 05:54:45;;;;;;;0.70;0.70;;;20.80;99.90;;;;;;5035626;28;20196;-63
2022/06/06 05:57:53;;;;;;;0.82;0.82;;;20.90;99.90;;;;;;5034275;28;20296;-63
2022/06/06 06:00:27;;;;;;;0.70;0.70;;;20.90;99.90;;;;;;4953628;28;20631;-63
2022/06/06 06:03:37;;;;;;;0.80;0.80;;;20.90;99.90;;;;;;5028748;28;20220;-64
2022/06/06 06:06:18;;;;;;;0.60;0.60;;;20.90;99.90;;;;;;5045117;28;20247;-63
2022/06/06 06:09:08;;;;;;;0.80;0.80;;;21.00;99.90;;;;;;5041354;28;20240;-66
2022/06/06 06:11:48;;;;;;;0.90;0.90;;;21.00;99.90;;;;;;5042023;28;20312;-65
2022/06/06 06:14:29;;;;;;;0.80;0.80;;;21.00;99.90;;;;;;5038600;28;20738;-64
2022/06/06 06:16:59;;;;;;;0.80;0.80;;;21.10;99.90;;;;;;5035536;28;20232;-64
2022/06/06 06:19:35;;;;;;;0.82;0.82;;;21.20;99.90;;;;;;5036353;28;20188;-63
2022/06/06 06:22:04;;;;;;;0.80;0.80;;;21.20;99.90;;;;;;5045341;28;20837;-62
2022/06/06 06:24:34;;;;;;;0.77;0.77;;;21.10;99.90;;;;;;5039157;28;20283;-62
2022/06/06 06:27:04;;;;;;;1.83;1.00;;;21.00;99.90;;;;;;5037110;28;20288;-63
2022/06/06 06:29:31;;;;;;;0.80;0.80;;;21.00;99.90;;;;;;5036398;28;20315;-63
2022/06/06 06:32:19;;;;;;;0.70;0.70;;;21.00;99.90;;;;;;5045364;28;20773;-65
2022/06/06 06:35:00;;;;;;;0.77;0.77;;;21.00;99.90;;;;;;5043329;28;20208;-63
2022/06/06 06:37:40;;;;;;;0.80;0.80;;;21.00;99.90;;;;;;5029994;28;20209;-65
2022/06/06 06:40:21;;;;;;;0.80;0.80;;;21.10;99.90;;;;;;5031106;28;20231;-63
2022/06/06 06:43:07;;;;;;;0.80;0.80;;;21.10;99.90;;;;;;5035077;28;20714;-64
2022/06/06 06:45:38;;;;;;;0.83;0.83;;;21.00;99.90;;;;;;5036471;28;20259;-64
2022/06/06 06:48:12;;;;;;;0.77;0.77;;;21.00;99.90;;;;;;5041637;28;20645;-63
2022/06/06 06:50:52;;;;;;;0.70;0.70;;;20.80;99.90;;;;;;5037396;28;20212;-63
2022/06/06 06:53:52;;;;;;;0.60;0.60;;;20.90;99.90;;;;;;5037495;28;20200;-63
2022/06/06 06:56:31;;;;;;;0.70;0.70;;;20.90;99.90;;;;;;5034940;28;20235;-63
2022/06/06 06:59:10;;;;;;;0.90;0.90;;;21.00;99.90;;;;;;5033164;28;20225;-64
2022/06/06 07:08:32;;;;;;;0.80;0.80;;;21.00;99.90;;;;;;5037863;28;20342;-64
2022/06/06 07:10:31;;;;;;;0.80;0.80;;;21.30;99.90;;;;;;5027818;28;20238;-63
2022/06/06 07:13:21;;;;;;;0.70;0.70;;;21.30;99.90;;;;;;5040805;28;20311;-63
2022/06/06 07:15:52;;;;;;;0.70;0.70;;;21.40;99.90;;;;;;5048131;28;20273;-63
2022/06/06 07:18:23;;;;;;;0.70;0.70;;;21.50;99.90;;;;;;5035058;28;20236;-63
2022/06/06 07:20:52;;;;;;;0.77;0.77;;;21.70;99.90;;;;;;5024184;28;20628;-64
2022/06/06 07:23:22;;;;;;;0.77;0.77;;;21.80;99.90;;;;;;5031754;28;20287;-64
2022/06/06 07:25:50;;;;;;;0.80;0.80;;;22.00;99.90;;;;;;5032805;28;20248;-64
2022/06/06 07:28:21;;;;;;;0.97;0.97;;;22.10;99.90;;;;;;5037033;28;20232;-62
2022/06/06 07:30:58;;;;;;;0.90;0.90;;;22.10;99.90;;;;;;5024849;28;20741;-64
2022/06/06 07:33:42;;;;;;;0.90;0.90;;;22.10;99.90;;;;;;5031497;28;20303;-64
2022/06/06 07:36:17;;;;;;;0.80;0.80;;;22.30;99.90;;;;;;5036918;28;20232;-66
2022/06/06 07:39:01;;;;;;;0.70;0.70;;;22.60;99.90;;;;;;5036084;28;20574;-65
2022/06/06 07:41:36;;;;;;;0.70;0.70;;;22.80;99.90;;;;;;5039145;28;20247;-64
2022/06/06 07:44:21;;;;;;;1.03;0.93;;;23.00;99.90;;;;;;5031323;28;20214;-64
2022/06/06 07:47:01;;;;;;;0.90;0.90;;;23.00;99.90;;;;;;5044684;28;20208;-66
2022/06/06 07:49:39;;;;;;;0.87;0.87;;;22.90;99.90;;;;;;5044077;28;20714;-63
2022/06/06 07:52:14;;;;;;;0.83;0.83;;;22.90;99.90;;;;;;5046736;28;20220;-64
2022/06/06 07:54:52;;;;;;;0.90;0.90;;;22.90;99.90;;;;;;5046494;28;20609;-64
2022/06/06 07:57:30;;;;;;;0.90;0.90;;;22.80;99.90;;;;;;5048960;28;20546;-64
2022/06/06 08:00:05;;;;;;;0.80;0.80;;;22.90;99.90;;;;;;5023312;28;20213;-63
2022/06/06 08:03:00;;;;;;;0.97;0.97;;;22.90;99.90;;;;;;5038666;28;20250;-64
2022/06/06 08:05:57;;;;;;;0.70;0.70;;;22.80;99.90;;;;;;5046519;28;20213;-63
2022/06/06 08:08:40;;;;;;;0.90;0.90;;;22.90;99.90;;;;;;5042229;28;20204;-65
2022/06/06 08:11:15;;;;;;;0.70;0.70;;;23.20;99.90;;;;;;5032142;28;20216;-63
2022/06/06 08:13:52;;;;;;;1.07;1.07;;;23.20;99.90;;;;;;5035361;28;20204;-63
2022/06/06 08:16:25;;;;;;;0.83;0.83;;;23.30;99.90;;;;;;5041494;28;20208;-63
2022/06/06 08:19:36;;;;;;;0.90;0.90;;;23.50;99.90;;;;;;5038856;28;20249;-64
2022/06/06 08:22:04;;;;;;;0.80;0.80;;;23.60;99.90;;;;;;5044404;28;20226;-62
2022/06/06 08:24:34;;;;;;;0.82;0.82;;;23.90;99.90;;;;;;5039206;28;20200;-62
2022/06/06 08:27:06;;;;;;;0.73;0.73;;;24.10;99.90;;;;;;5034248;28;20291;-63
2022/06/06 08:29:36;;;;;;;0.70;0.70;;;23.90;99.90;;;;;;5039153;28;20319;-64
2022/06/06 08:32:03;;;;;;;0.90;0.90;;;23.70;99.90;;;;;;5033939;28;20311;-64
2022/06/06 08:34:30;;;;;;;0.70;0.70;;;23.90;99.90;;;;;;5044025;28;20284;-65
2022/06/06 08:37:28;;;;;;;0.90;0.90;;;24.20;99.90;;;;;;5027535;28;20306;-65
2022/06/06 08:40:03;;;;;;;0.60;0.60;;;24.10;99.90;;;;;;5042153;28;20196;-65
2022/06/06 08:42:40;;;;;;;0.60;0.60;;;23.70;99.90;;;;;;5043075;28;20250;-63
2022/06/06 08:45:18;;;;;;;0.80;0.80;;;23.90;99.90;;;;;;5048806;28;20208;-63
2022/06/06 08:48:02;;;;;;;0.70;0.70;;;23.90;99.90;;;;;;5038074;28;20231;-64
2022/06/06 08:50:46;;;;;;;0.70;0.70;;;23.90;99.90;;;;;;5058744;28;20217;-65
2022/06/06 08:53:52;;;;;;;0.55;0.55;;;24.20;99.90;;;;;;5048147;28;20251;-65
2022/06/06 08:56:46;;;;;;;0.80;0.80;;;24.30;99.90;;;;;;5056203;28;20228;-63
2022/06/06 09:00:07;;;;;;;0.80;0.80;;;24.60;99.90;;;;;;5016878;28;20201;-63
2022/06/06 09:03:05;;;;;;;0.80;0.80;;;25.00;99.90;;;;;;4968158;28;20222;-63
2022/06/06 09:06:08;;;;;;;0.57;0.57;;;24.80;99.90;;;;;;4969808;28;20207;-63
2022/06/06 09:09:09;;;;;;;0.75;0.75;;;24.60;99.90;;;;;;4957731;28;20286;-64
2022/06/06 09:12:08;;;;;;;0.70;0.70;;;24.20;99.90;;;;;;4960729;28;20233;-63
2022/06/06 09:15:14;;;;;;;0.70;0.70;;;24.40;99.90;;;;;;4966336;28;20278;-62
2022/06/06 09:18:18;;;;;;;0.73;0.73;;;24.60;99.90;;;;;;4945045;28;20302;-63
2022/06/06 09:20:57;;;;;;;0.80;0.80;;;24.80;99.90;;;;;;4960271;28;20302;-62
2022/06/06 09:23:46;;;;;;;0.50;0.50;;;24.80;99.90;;;;;;4961764;28;20303;-63
2022/06/06 09:26:24;;;;;;;0.80;0.80;;;24.60;99.90;;;;;;4962153;28;20294;-65
2022/06/06 09:29:27;;;;;;;0.65;0.65;;;24.60;99.90;;;;;;4960653;28;20315;-64
2022/06/06 09:32:23;;;;;;;0.70;0.70;;;24.40;99.90;;;;;;4984053;22;21464;-64
2022/06/06 09:35:23;;;;;;;0.60;0.60;;;24.30;99.90;;;;;;5073183;28;20286;-64
2022/06/06 09:38:05;;;;;;;0.70;0.70;;;24.20;99.90;;;;;;5077006;28;20358;-64
2022/06/06 09:40:44;;;;;;;0.63;0.63;;;24.30;99.90;;;;;;5070434;28;20217;-66
2022/06/06 09:43:34;;;;;;;0.80;0.80;;;24.20;99.90;;;;;;5070096;28;20329;-66
2022/06/06 09:46:47;;;;;;;0.87;0.87;;;24.10;99.90;;;;;;5074362;28;20203;-66
2022/06/06 09:49:50;;;;;;;0.60;0.60;;;24.00;99.90;;;;;;5058497;28;20230;-65
2022/06/06 09:52:56;;;;;;;0.70;0.70;;;24.00;99.90;;;;;;5045363;28;20232;-66
2022/06/06 09:59:18;;;;;;;1.40;1.40;;;24.40;99.90;;;;;;5065447;28;20222;-66
2022/06/06 10:02:29;;;;;;;0.70;0.70;;;24.40;99.90;;;;;;5075632;28;20295;-66
2022/06/06 10:05:30;;;;;;;0.60;0.60;;;24.20;99.90;;;;;;5070773;28;20299;-66
2022/06/06 10:08:45;;;;;;;0.80;0.80;;;24.10;99.90;;;;;;5066858;28;20281;-67
2022/06/06 10:11:43;;;;;;;0.88;0.88;;;23.90;99.90;;;;;;5075496;28;20203;-66
2022/06/06 10:14:35;;;;;;;0.70;0.70;;;23.70;99.90;;;;;;5073984;28;20210;-66
2022/06/06 10:17:33;;;;;;;0.73;0.73;;;23.70;99.90;;;;;;5076375;28;20204;-67
2022/06/06 10:20:32;;;;;;;0.77;0.77;;;23.60;99.90;;;;;;5087202;28;20282;-67
2022/06/06 10:23:38;;;;;;;0.77;0.77;;;23.60;99.90;;;;;;5076714;28;20297;-67
2022/06/06 10:26:38;;;;;;;0.90;0.90;;;23.60;99.90;;;;;;4999267;28;20244;-66
2022/06/06 10:29:15;;;;;;;0.70;0.70;;;23.70;99.90;;;;;;5057427;28;20213;-67
2022/06/06 10:32:11;;;;;;;0.60;0.60;;;23.70;99.90;;;;;;5084458;28;20230;-67
2022/06/06 10:35:13;;;;;;;1.10;1.10;;;23.90;99.90;;;;;;5081740;28;20211;-67
2022/06/06 10:37:59;;;;;;;1.35;1.25;;;24.20;99.90;;;;;;5082419;28;20226;-66
2022/06/06 10:40:57;;;;;;;1.00;1.00;;;24.30;99.90;;;;;;5091476;28;20199;-69
2022/06/06 10:43:47;;;;;;;1.10;1.10;;;24.50;99.90;;;;;;5097263;28;20229;-66
2022/06/06 10:46:18;;;;;;;0.90;0.90;;;24.40;99.90;;;;;;5065100;28;20243;-67
2022/06/06 10:49:21;;;;;;;1.00;1.00;;;24.30;99.90;;;;;;5082041;28;20199;-65
2022/06/06 10:52:27;;;;;;;1.38;0.80;;;24.20;99.90;;;;;;5073874;28;20211;-68
2022/06/06 10:55:26;;;;;;;2.30;2.20;;;24.10;99.90;;;;;;5044950;28;20226;-67
2022/06/06 10:58:22;;;;;;;3.10;2.93;;;24.10;99.90;;;;;;5068368;28;20290;-66
2022/06/06 11:01:17;;;;;;;7.20;6.77;;;24.00;99.90;;;;;;5076609;28;20199;-67
2022/06/06 11:04:39;;;;;;;4.15;3.95;;;23.70;99.90;;;;;;5080306;28;20198;-65
2022/06/06 11:07:30;;;;;;;1.80;1.70;;;23.70;99.90;;;;;;4990322;28;20293;-65
2022/06/06 11:10:33;;;;;;;1.00;1.00;;;23.70;99.90;;;;;;4982941;28;20466;-66
2022/06/06 11:13:24;;;;;;;1.10;1.10;;;23.80;99.90;;;;;;5064262;28;20309;-66
2022/06/06 11:16:11;;;;;;;0.63;0.63;;;23.70;99.90;;;;;;5079752;28;20296;-66
2022/06/06 11:19:30;;;;;;;0.75;0.75;;;23.60;99.90;;;;;;5081049;28;20293;-65
2022/06/06 11:22:36;;;;;;;0.80;0.80;;;23.50;99.90;;;;;;5072198;28;20214;-65
2022/06/06 11:25:09;;;;;;;0.85;0.85;;;23.40;99.90;;;;;;5095427;28;20241;-65
2022/06/06 11:28:13;;;;;;;0.82;0.82;;;23.20;99.90;;;;;;5089828;28;20640;-64
2022/06/06 11:31:09;;;;;;;0.80;0.80;;;23.00;99.90;;;;;;5084329;28;20290;-66
2022/06/06 11:34:02;;;;;;;0.60;0.60;;;22.90;99.90;;;;;;5079216;28;20317;-65
2022/06/06 11:36:48;;;;;;;0.70;0.70;;;22.80;99.90;;;;;;5083316;28;20668;-66
2022/06/06 11:39:38;;;;;;;0.70;0.70;;;22.80;99.90;;;;;;5083521;28;20531;-66
2022/06/06 11:42:25;;;;;;;0.70;0.70;;;22.70;99.90;;;;;;5081413;28;20781;-66
2022/06/06 11:45:26;;;;;;;0.68;0.68;;;22.60;99.90;;;;;;5079618;28;20209;-66
2022/06/06 11:48:11;;;;;;;0.70;0.70;;;22.50;99.90;;;;;;5068765;28;20702;-65
2022/06/06 11:51:26;;;;;;;0.80;0.80;;;22.50;99.90;;;;;;5082431;28;20235;-65
2022/06/06 11:54:26;;;;;;;0.70;0.70;;;22.50;99.90;;;;;;5058533;28;20202;-67
2022/06/06 11:57:15;;;;;;;0.90;0.90;;;22.70;99.90;;;;;;5074394;28;20230;-65
2022/06/06 12:00:10;;;;;;;0.83;0.80;;;23.10;99.90;;;;;;5082087;28;20200;-66
2022/06/06 12:03:12;;;;;;;0.83;0.83;;;23.60;99.90;;;;;;5076558;28;20230;-66
2022/06/06 12:06:15;;;;;;;0.80;0.80;;;23.90;99.90;;;;;;5080252;28;20304;-67
2022/06/06 12:08:53;;;;;;;0.80;0.80;;;24.10;99.90;;;;;;5086583;28;20216;-66
2022/06/06 12:12:12;;;;;;;0.80;0.80;;;24.40;99.90;;;;;;5076316;28;20219;-66
2022/06/06 12:15:12;;;;;;;0.60;0.60;;;24.60;99.90;;;;;;5079852;28;20208;-66
2022/06/06 12:17:50;;;;;;;0.75;0.75;;;25.00;99.90;;;;;;5081539;28;20290;-67
2022/06/06 12:20:41;;;;;;;0.70;0.70;;;25.00;99.90;;;;;;5083425;28;20226;-68
2022/06/06 12:23:16;;;;;;;0.65;0.65;;;25.10;99.90;;;;;;5081703;28;20226;-66
2022/06/06 12:26:14;;;;;;;0.80;0.80;;;25.20;99.90;;;;;;5083943;28;20223;-66
2022/06/06 12:29:23;;;;;;;0.80;0.80;;;25.20;99.90;;;;;;5088493;28;20329;-66
2022/06/06 12:32:04;;;;;;;0.70;0.70;;;25.10;99.90;;;;;;5086363;28;20309;-66
2022/06/06 12:34:39;;;;;;;0.75;0.75;;;25.00;99.90;;;;;;5084589;28;20294;-67
2022/06/06 12:37:12;;;;;;;0.60;0.60;;;24.80;99.90;;;;;;5086710;28;20208;-66
2022/06/06 12:39:54;;;;;;;0.60;0.60;;;24.80;99.90;;;;;;5085847;28;20207;-67
2022/06/06 12:42:32;;;;;;;0.63;0.63;;;24.70;99.90;;;;;;5079167;28;20229;-66
2022/06/06 12:45:47;;;;;;;0.70;0.70;;;24.50;99.90;;;;;;5076726;28;20210;-66
2022/06/06 12:48:50;;;;;;;0.88;0.88;;;24.40;99.90;;;;;;5078975;28;20664;-66
2022/06/06 12:51:25;;;;;;;0.60;0.60;;;24.20;99.90;;;;;;5086406;28;20432;-67
2022/06/06 12:55:24;;;;;;;0.60;0.60;;;24.00;99.90;;;;;;5080151;28;20210;-65
2022/06/06 12:57:36;;;;;;;0.73;0.73;;;24.00;99.90;;;;;;4990644;28;20202;-65
2022/06/06 13:00:06;;;;;;;0.60;0.60;;;23.90;99.90;;;;;;4986117;28;20209;-65
2022/06/06 13:02:53;;;;;;;0.77;0.77;;;24.00;99.90;;;;;;4993262;28;20312;-65
2022/06/06 13:05:30;;;;;;;0.60;0.60;;;24.00;99.90;;;;;;4993215;28;20237;-66
2022/06/06 13:08:31;;;;;;;0.55;0.55;;;24.10;99.90;;;;;;4992834;28;20301;-66
2022/06/06 13:11:18;;;;;;;0.50;0.50;;;24.10;99.90;;;;;;4986140;28;20233;-66
2022/06/06 13:14:05;;;;;;;0.63;0.63;;;24.20;99.90;;;;;;4990974;28;20253;-66
2022/06/06 13:16:45;;;;;;;0.70;0.70;;;24.40;99.90;;;;;;4989958;28;20260;-66
2022/06/06 13:19:40;;;;;;;0.60;0.60;;;24.40;99.90;;;;;;4992941;28;20305;-68
2022/06/06 13:22:19;;;;;;;0.70;0.70;;;24.80;99.90;;;;;;4988138;28;20232;-67
2022/06/06 13:25:10;;;;;;;0.50;0.50;;;25.10;99.90;;;;;;4991814;28;20310;-67
2022/06/06 13:27:57;;;;;;;0.60;0.60;;;25.40;99.90;;;;;;5026652;28;20199;-67
2022/06/06 13:30:29;;;;;;;0.60;0.60;;;25.50;99.90;;;;;;5089118;28;20226;-67
2022/06/06 13:33:15;;;;;;;0.57;0.57;;;25.70;99.90;;;;;;5080127;28;20261;-66
2022/06/06 13:35:54;;;;;;;0.70;0.70;;;25.90;99.90;;;;;;5090094;28;20206;-66
2022/06/06 13:38:38;;;;;;;0.73;0.73;;;26.10;99.90;;;;;;5086531;28;20621;-67
2022/06/06 13:41:19;;;;;;;0.57;0.57;;;26.40;99.90;;;;;;5083156;28;20206;-67
2022/06/06 13:43:57;;;;;;;0.63;0.63;;;26.30;99.90;;;;;;5088028;28;20209;-66
2022/06/06 13:46:39;;;;;;;0.70;0.70;;;26.30;99.90;;;;;;5087195;28;20293;-67
2022/06/06 13:49:29;;;;;;;0.60;0.60;;;26.20;99.90;;;;;;5081533;28;20285;-66
2022/06/06 13:52:06;;;;;;;0.60;0.60;;;26.10;99.90;;;;;;5077329;28;20247;-66
2022/06/06 13:54:35;;;;;;;0.60;0.60;;;26.10;99.90;;;;;;5082615;28;20646;-66
2022/06/06 13:57:26;;;;;;;0.45;0.45;;;25.90;99.90;;;;;;5088744;28;20196;-66
2022/06/06 14:00:13;;;;;;;0.57;0.57;;;25.70;99.90;;;;;;5062961;28;20257;-66
2022/06/06 14:03:05;;;;;;;0.70;0.70;;;25.70;99.90;;;;;;5076668;28;20227;-67
2022/06/06 14:05:57;;;;;;;0.60;0.60;;;25.60;99.90;;;;;;5068687;28;20208;-66
2022/06/06 14:08:24;;;;;;;0.70;0.70;;;25.50;99.90;;;;;;5079949;28;20246;-66
2022/06/06 14:11:07;;;;;;;0.70;0.70;;;25.30;99.90;;;;;;5081895;28;20223;-65
2022/06/06 14:13:46;;;;;;;0.60;0.60;;;25.00;99.90;;;;;;5080388;28;20261;-67
2022/06/06 14:16:25;;;;;;;0.60;0.60;;;24.90;99.90;;;;;;5076756;28;20203;-66
2022/06/06 14:18:57;;;;;;;0.50;0.50;;;24.80;99.90;;;;;;5072864;28;20206;-66
2022/06/06 14:21:29;;;;;;;0.77;0.77;;;24.60;99.90;;;;;;5070266;28;20222;-67